Terminal Aerodrome Forecast
Issued by NWS Lubbock, TX

Home | Current Version | Previous Version | Text Only | Print | Product List | Glossary On
Versions: 1 2 3 4 5 6 7 8 9 10 11 12 13 14
000
FTUS44 KLUB 191246 AAA
TAFLBB
TAF AMD
KLBB 191246Z 1913/2012 12008KT 6SM BR BKN012 WS020/18045KT
     FM191500 20011KT P6SM BKN090=

USA.gov is the U.S. government's official web portal to all federal, state and local government web resources and services.